sensor_id;sensor_type;location;lat;lon;timestamp;P1;durP1;ratioP1;P2;durP2;ratioP2
11616;SDS011;5864;52.998;9.068;2022-12-15T00:01:35;23.33;;;13.80;;
11616;SDS011;5864;52.998;9.068;2022-12-15T00:04:20;25.13;;;12.98;;
11616;SDS011;5864;52.998;9.068;2022-12-15T00:07:05;29.15;;;15.55;;
11616;SDS011;5864;52.998;9.068;2022-12-15T00:09:50;29.55;;;15.40;;
11616;SDS011;5864;52.998;9.068;2022-12-15T00:12:35;23.40;;;13.60;;
11616;SDS011;5864;52.998;9.068;2022-12-15T00:15:22;29.40;;;14.32;;
11616;SDS011;5864;52.998;9.068;2022-12-15T00:18:09;30.40;;;13.68;;
11616;SDS011;5864;52.998;9.068;2022-12-15T00:20:55;21.73;;;13.52;;
11616;SDS011;5864;52.998;9.068;2022-12-15T00:23:41;24.90;;;13.88;;
11616;SDS011;5864;52.998;9.068;2022-12-15T00:26:26;26.67;;;14.07;;
11616;SDS011;5864;52.998;9.068;2022-12-15T00:29:11;26.27;;;14.15;;
11616;SDS011;5864;52.998;9.068;2022-12-15T00:31:56;22.70;;;12.63;;
11616;SDS011;5864;52.998;9.068;2022-12-15T00:34:42;19.55;;;11.73;;
11616;SDS011;5864;52.998;9.068;2022-12-15T00:37:27;24.95;;;12.70;;
11616;SDS011;5864;52.998;9.068;2022-12-15T00:40:12;24.00;;;12.70;;
11616;SDS011;5864;52.998;9.068;2022-12-15T00:42:39;22.20;;;13.10;;
11616;SDS011;5864;52.998;9.068;2022-12-15T00:45:07;26.63;;;13.63;;
11616;SDS011;5864;52.998;9.068;2022-12-15T00:47:35;19.23;;;12.10;;
11616;SDS011;5864;52.998;9.068;2022-12-15T00:50:03;23.80;;;13.07;;
11616;SDS011;5864;52.998;9.068;2022-12-15T00:52:49;25.10;;;12.75;;
11616;SDS011;5864;52.998;9.068;2022-12-15T00:55:33;23.42;;;12.48;;
11616;SDS011;5864;52.998;9.068;2022-12-15T00:58:18;21.83;;;11.85;;
11616;SDS011;5864;52.998;9.068;2022-12-15T01:01:06;24.13;;;11.80;;
11616;SDS011;5864;52.998;9.068;2022-12-15T01:03:52;20.48;;;11.63;;
11616;SDS011;5864;52.998;9.068;2022-12-15T01:06:39;16.70;;;10.60;;
11616;SDS011;5864;52.998;9.068;2022-12-15T01:09:24;23.10;;;12.88;;
11616;SDS011;5864;52.998;9.068;2022-12-15T01:12:09;20.10;;;11.73;;
11616;SDS011;5864;52.998;9.068;2022-12-15T01:14:54;20.73;;;11.43;;
11616;SDS011;5864;52.998;9.068;2022-12-15T01:17:39;21.45;;;12.18;;
11616;SDS011;5864;52.998;9.068;2022-12-15T01:20:24;24.27;;;12.65;;
11616;SDS011;5864;52.998;9.068;2022-12-15T01:22:54;18.17;;;11.13;;
11616;SDS011;5864;52.998;9.068;2022-12-15T01:25:22;21.73;;;11.48;;
11616;SDS011;5864;52.998;9.068;2022-12-15T01:27:50;21.45;;;11.07;;
11616;SDS011;5864;52.998;9.068;2022-12-15T01:30:19;23.52;;;12.02;;
11616;SDS011;5864;52.998;9.068;2022-12-15T01:32:48;20.05;;;11.73;;
11616;SDS011;5864;52.998;9.068;2022-12-15T01:35:15;20.23;;;11.35;;
11616;SDS011;5864;52.998;9.068;2022-12-15T01:37:43;19.35;;;11.05;;
11616;SDS011;5864;52.998;9.068;2022-12-15T01:40:13;18.98;;;11.50;;
11616;SDS011;5864;52.998;9.068;2022-12-15T01:43:00;22.90;;;11.25;;
11616;SDS011;5864;52.998;9.068;2022-12-15T01:45:36;19.02;;;11.32;;
11616;SDS011;5864;52.998;9.068;2022-12-15T01:48:17;19.30;;;11.18;;
11616;SDS011;5864;52.998;9.068;2022-12-15T01:50:50;17.58;;;10.70;;
11616;SDS011;5864;52.998;9.068;2022-12-15T01:53:32;19.33;;;11.73;;
11616;SDS011;5864;52.998;9.068;2022-12-15T01:56:05;17.70;;;10.23;;
11616;SDS011;5864;52.998;9.068;2022-12-15T01:58:36;21.70;;;11.55;;
11616;SDS011;5864;52.998;9.068;2022-12-15T02:01:06;18.92;;;10.90;;
11616;SDS011;5864;52.998;9.068;2022-12-15T02:03:34;20.77;;;10.63;;
11616;SDS011;5864;52.998;9.068;2022-12-15T02:06:03;23.92;;;11.45;;
11616;SDS011;5864;52.998;9.068;2022-12-15T02:08:32;20.88;;;11.38;;
11616;SDS011;5864;52.998;9.068;2022-12-15T02:11:07;19.83;;;10.07;;
11616;SDS011;5864;52.998;9.068;2022-12-15T02:13:54;21.25;;;11.65;;
11616;SDS011;5864;52.998;9.068;2022-12-15T02:16:27;19.00;;;10.38;;
11616;SDS011;5864;52.998;9.068;2022-12-15T02:19:08;20.33;;;11.10;;
11616;SDS011;5864;52.998;9.068;2022-12-15T02:21:58;19.55;;;10.43;;
11616;SDS011;5864;52.998;9.068;2022-12-15T02:27:44;22.40;;;12.93;;
11616;SDS011;5864;52.998;9.068;2022-12-15T02:30:35;20.20;;;11.45;;
11616;SDS011;5864;52.998;9.068;2022-12-15T02:33:11;20.23;;;10.95;;
11616;SDS011;5864;52.998;9.068;2022-12-15T02:35:48;21.52;;;10.55;;
11616;SDS011;5864;52.998;9.068;2022-12-15T02:38:29;20.73;;;11.20;;
11616;SDS011;5864;52.998;9.068;2022-12-15T02:40:58;22.70;;;11.88;;
11616;SDS011;5864;52.998;9.068;2022-12-15T02:43:27;20.98;;;12.38;;
11616;SDS011;5864;52.998;9.068;2022-12-15T02:46:03;20.13;;;11.18;;
11616;SDS011;5864;52.998;9.068;2022-12-15T02:48:42;19.83;;;10.48;;
11616;SDS011;5864;52.998;9.068;2022-12-15T02:51:24;20.15;;;10.77;;
11616;SDS011;5864;52.998;9.068;2022-12-15T02:54:07;20.92;;;10.70;;
11616;SDS011;5864;52.998;9.068;2022-12-15T02:56:49;20.13;;;11.10;;
11616;SDS011;5864;52.998;9.068;2022-12-15T02:59:30;19.27;;;10.73;;
11616;SDS011;5864;52.998;9.068;2022-12-15T03:02:05;19.88;;;11.00;;
11616;SDS011;5864;52.998;9.068;2022-12-15T03:04:35;22.17;;;10.55;;
11616;SDS011;5864;52.998;9.068;2022-12-15T03:07:03;20.73;;;11.90;;
11616;SDS011;5864;52.998;9.068;2022-12-15T03:09:33;18.77;;;11.05;;
11616;SDS011;5864;52.998;9.068;2022-12-15T03:12:01;19.35;;;10.85;;
11616;SDS011;5864;52.998;9.068;2022-12-15T03:14:28;22.27;;;10.82;;
11616;SDS011;5864;52.998;9.068;2022-12-15T03:16:56;19.58;;;11.93;;
11616;SDS011;5864;52.998;9.068;2022-12-15T03:19:25;21.27;;;11.25;;
11616;SDS011;5864;52.998;9.068;2022-12-15T03:21:53;19.98;;;11.18;;
11616;SDS011;5864;52.998;9.068;2022-12-15T03:24:20;19.00;;;11.23;;
11616;SDS011;5864;52.998;9.068;2022-12-15T03:26:47;19.80;;;11.23;;
11616;SDS011;5864;52.998;9.068;2022-12-15T03:29:15;24.42;;;12.60;;
11616;SDS011;5864;52.998;9.068;2022-12-15T03:31:43;21.48;;;11.82;;
11616;SDS011;5864;52.998;9.068;2022-12-15T03:34:11;19.08;;;11.27;;
11616;SDS011;5864;52.998;9.068;2022-12-15T03:36:40;19.80;;;10.80;;
11616;SDS011;5864;52.998;9.068;2022-12-15T03:39:07;19.48;;;11.05;;
11616;SDS011;5864;52.998;9.068;2022-12-15T03:41:35;20.70;;;11.15;;
11616;SDS011;5864;52.998;9.068;2022-12-15T03:44:02;18.83;;;11.13;;
11616;SDS011;5864;52.998;9.068;2022-12-15T03:46:30;19.80;;;10.85;;
11616;SDS011;5864;52.998;9.068;2022-12-15T03:48:57;21.27;;;11.18;;
11616;SDS011;5864;52.998;9.068;2022-12-15T03:51:25;21.20;;;12.13;;
11616;SDS011;5864;52.998;9.068;2022-12-15T03:53:54;20.30;;;11.40;;
11616;SDS011;5864;52.998;9.068;2022-12-15T03:56:23;22.30;;;11.88;;
11616;SDS011;5864;52.998;9.068;2022-12-15T03:58:51;22.38;;;12.23;;
11616;SDS011;5864;52.998;9.068;2022-12-15T04:01:22;20.48;;;11.32;;
11616;SDS011;5864;52.998;9.068;2022-12-15T04:03:53;18.20;;;10.52;;
11616;SDS011;5864;52.998;9.068;2022-12-15T04:06:21;18.98;;;10.80;;
11616;SDS011;5864;52.998;9.068;2022-12-15T04:08:49;22.70;;;11.63;;
11616;SDS011;5864;52.998;9.068;2022-12-15T04:11:18;17.85;;;10.60;;
11616;SDS011;5864;52.998;9.068;2022-12-15T04:13:45;18.80;;;10.23;;
11616;SDS011;5864;52.998;9.068;2022-12-15T04:16:13;23.02;;;11.20;;
11616;SDS011;5864;52.998;9.068;2022-12-15T04:18:40;18.42;;;11.05;;
11616;SDS011;5864;52.998;9.068;2022-12-15T04:21:08;20.02;;;10.43;;
11616;SDS011;5864;52.998;9.068;2022-12-15T04:23:34;20.52;;;10.77;;
11616;SDS011;5864;52.998;9.068;2022-12-15T04:26:01;20.77;;;10.00;;
11616;SDS011;5864;52.998;9.068;2022-12-15T04:28:48;16.10;;;10.20;;
11616;SDS011;5864;52.998;9.068;2022-12-15T04:31:33;20.25;;;11.30;;
11616;SDS011;5864;52.998;9.068;2022-12-15T04:34:18;18.63;;;10.95;;
11616;SDS011;5864;52.998;9.068;2022-12-15T04:37:06;21.45;;;11.02;;
11616;SDS011;5864;52.998;9.068;2022-12-15T04:39:55;18.52;;;10.05;;
11616;SDS011;5864;52.998;9.068;2022-12-15T04:42:43;18.30;;;9.77;;
11616;SDS011;5864;52.998;9.068;2022-12-15T04:45:31;17.85;;;9.88;;
11616;SDS011;5864;52.998;9.068;2022-12-15T04:48:16;21.80;;;11.32;;
11616;SDS011;5864;52.998;9.068;2022-12-15T04:51:01;14.50;;;9.38;;
11616;SDS011;5864;52.998;9.068;2022-12-15T04:53:46;18.83;;;10.73;;
11616;SDS011;5864;52.998;9.068;2022-12-15T04:56:31;18.27;;;10.43;;
11616;SDS011;5864;52.998;9.068;2022-12-15T04:59:16;20.15;;;11.40;;
11616;SDS011;5864;52.998;9.068;2022-12-15T05:02:02;19.65;;;11.02;;
11616;SDS011;5864;52.998;9.068;2022-12-15T05:04:47;21.77;;;11.23;;
11616;SDS011;5864;52.998;9.068;2022-12-15T05:07:32;19.75;;;10.65;;
11616;SDS011;5864;52.998;9.068;2022-12-15T05:10:17;19.38;;;11.10;;
11616;SDS011;5864;52.998;9.068;2022-12-15T05:13:02;19.55;;;10.73;;
11616;SDS011;5864;52.998;9.068;2022-12-15T05:15:48;16.50;;;10.02;;
11616;SDS011;5864;52.998;9.068;2022-12-15T05:18:34;21.85;;;10.85;;
11616;SDS011;5864;52.998;9.068;2022-12-15T05:21:19;21.63;;;11.27;;
11616;SDS011;5864;52.998;9.068;2022-12-15T05:24:04;18.65;;;10.88;;
11616;SDS011;5864;52.998;9.068;2022-12-15T05:26:49;18.58;;;10.02;;
11616;SDS011;5864;52.998;9.068;2022-12-15T05:29:34;19.35;;;10.52;;
11616;SDS011;5864;52.998;9.068;2022-12-15T05:32:19;20.13;;;10.57;;
11616;SDS011;5864;52.998;9.068;2022-12-15T05:34:48;20.33;;;10.48;;
11616;SDS011;5864;52.998;9.068;2022-12-15T05:37:15;16.10;;;9.38;;
11616;SDS011;5864;52.998;9.068;2022-12-15T05:39:43;20.00;;;10.20;;
11616;SDS011;5864;52.998;9.068;2022-12-15T05:42:10;22.70;;;11.45;;
11616;SDS011;5864;52.998;9.068;2022-12-15T05:44:38;20.40;;;10.90;;
11616;SDS011;5864;52.998;9.068;2022-12-15T05:47:05;20.52;;;11.10;;
11616;SDS011;5864;52.998;9.068;2022-12-15T05:49:33;17.65;;;10.05;;
11616;SDS011;5864;52.998;9.068;2022-12-15T05:52:02;17.15;;;10.25;;
11616;SDS011;5864;52.998;9.068;2022-12-15T05:54:31;19.73;;;10.80;;
11616;SDS011;5864;52.998;9.068;2022-12-15T05:56:59;18.33;;;10.88;;
11616;SDS011;5864;52.998;9.068;2022-12-15T05:59:26;17.48;;;10.32;;
11616;SDS011;5864;52.998;9.068;2022-12-15T06:01:54;21.27;;;9.82;;
11616;SDS011;5864;52.998;9.068;2022-12-15T06:04:21;16.50;;;10.40;;
11616;SDS011;5864;52.998;9.068;2022-12-15T06:06:49;18.92;;;10.63;;
11616;SDS011;5864;52.998;9.068;2022-12-15T06:09:19;18.50;;;10.23;;
11616;SDS011;5864;52.998;9.068;2022-12-15T06:11:46;19.63;;;10.48;;
11616;SDS011;5864;52.998;9.068;2022-12-15T06:14:14;17.42;;;10.68;;
11616;SDS011;5864;52.998;9.068;2022-12-15T06:16:41;17.83;;;10.38;;
11616;SDS011;5864;52.998;9.068;2022-12-15T06:19:09;18.25;;;10.23;;
11616;SDS011;5864;52.998;9.068;2022-12-15T06:21:36;19.50;;;10.45;;
11616;SDS011;5864;52.998;9.068;2022-12-15T06:24:04;18.20;;;10.35;;
11616;SDS011;5864;52.998;9.068;2022-12-15T06:26:34;18.90;;;10.32;;
11616;SDS011;5864;52.998;9.068;2022-12-15T06:29:03;17.58;;;10.25;;
11616;SDS011;5864;52.998;9.068;2022-12-15T06:31:34;21.80;;;10.93;;
11616;SDS011;5864;52.998;9.068;2022-12-15T06:34:02;20.67;;;11.32;;
11616;SDS011;5864;52.998;9.068;2022-12-15T06:36:31;20.23;;;10.68;;
11616;SDS011;5864;52.998;9.068;2022-12-15T06:38:59;20.75;;;11.93;;
11616;SDS011;5864;52.998;9.068;2022-12-15T06:41:32;18.35;;;10.45;;
11616;SDS011;5864;52.998;9.068;2022-12-15T06:44:12;20.13;;;10.93;;
11616;SDS011;5864;52.998;9.068;2022-12-15T06:46:41;19.65;;;10.90;;
11616;SDS011;5864;52.998;9.068;2022-12-15T06:49:10;18.95;;;10.55;;
11616;SDS011;5864;52.998;9.068;2022-12-15T06:51:38;21.25;;;11.32;;
11616;SDS011;5864;52.998;9.068;2022-12-15T06:54:06;19.48;;;10.93;;
11616;SDS011;5864;52.998;9.068;2022-12-15T06:56:37;18.10;;;10.68;;
11616;SDS011;5864;52.998;9.068;2022-12-15T06:59:05;18.30;;;10.75;;
11616;SDS011;5864;52.998;9.068;2022-12-15T07:01:33;23.27;;;10.73;;
11616;SDS011;5864;52.998;9.068;2022-12-15T07:04:01;19.13;;;11.13;;
11616;SDS011;5864;52.998;9.068;2022-12-15T07:06:31;17.55;;;9.90;;
11616;SDS011;5864;52.998;9.068;2022-12-15T07:09:00;18.27;;;10.18;;
11616;SDS011;5864;52.998;9.068;2022-12-15T07:11:28;17.80;;;10.25;;
11616;SDS011;5864;52.998;9.068;2022-12-15T07:13:57;19.58;;;9.95;;
11616;SDS011;5864;52.998;9.068;2022-12-15T07:16:24;16.13;;;9.93;;
11616;SDS011;5864;52.998;9.068;2022-12-15T07:18:52;16.52;;;9.63;;
11616;SDS011;5864;52.998;9.068;2022-12-15T07:21:19;19.02;;;10.43;;
11616;SDS011;5864;52.998;9.068;2022-12-15T07:23:47;18.20;;;10.10;;
11616;SDS011;5864;52.998;9.068;2022-12-15T07:26:14;19.05;;;11.50;;
11616;SDS011;5864;52.998;9.068;2022-12-15T07:28:42;19.23;;;10.70;;
11616;SDS011;5864;52.998;9.068;2022-12-15T07:31:10;17.83;;;10.15;;
11616;SDS011;5864;52.998;9.068;2022-12-15T07:33:38;16.27;;;9.70;;
11616;SDS011;5864;52.998;9.068;2022-12-15T07:36:06;18.63;;;10.05;;
11616;SDS011;5864;52.998;9.068;2022-12-15T07:38:34;14.73;;;9.70;;
11616;SDS011;5864;52.998;9.068;2022-12-15T07:41:03;20.17;;;11.63;;
11616;SDS011;5864;52.998;9.068;2022-12-15T07:43:32;16.20;;;10.23;;
11616;SDS011;5864;52.998;9.068;2022-12-15T07:46:00;14.88;;;9.68;;
11616;SDS011;5864;52.998;9.068;2022-12-15T07:48:29;18.80;;;10.63;;
11616;SDS011;5864;52.998;9.068;2022-12-15T07:50:57;15.32;;;9.63;;
11616;SDS011;5864;52.998;9.068;2022-12-15T07:53:25;18.52;;;10.55;;
11616;SDS011;5864;52.998;9.068;2022-12-15T07:55:53;20.55;;;10.85;;
11616;SDS011;5864;52.998;9.068;2022-12-15T07:58:23;14.90;;;9.63;;
11616;SDS011;5864;52.998;9.068;2022-12-15T08:00:51;17.17;;;10.00;;
11616;SDS011;5864;52.998;9.068;2022-12-15T08:03:18;16.83;;;9.63;;
11616;SDS011;5864;52.998;9.068;2022-12-15T08:05:48;18.35;;;10.93;;
11616;SDS011;5864;52.998;9.068;2022-12-15T08:08:15;17.67;;;10.45;;
11616;SDS011;5864;52.998;9.068;2022-12-15T08:10:43;17.80;;;11.35;;
11616;SDS011;5864;52.998;9.068;2022-12-15T08:13:11;18.95;;;10.75;;
11616;SDS011;5864;52.998;9.068;2022-12-15T08:15:39;22.67;;;10.63;;
11616;SDS011;5864;52.998;9.068;2022-12-15T08:18:06;19.08;;;10.82;;
11616;SDS011;5864;52.998;9.068;2022-12-15T08:20:34;19.65;;;10.65;;
11616;SDS011;5864;52.998;9.068;2022-12-15T08:23:03;17.50;;;10.00;;
11616;SDS011;5864;52.998;9.068;2022-12-15T08:25:31;18.60;;;10.70;;
11616;SDS011;5864;52.998;9.068;2022-12-15T08:27:58;18.33;;;10.38;;
11616;SDS011;5864;52.998;9.068;2022-12-15T08:30:26;18.60;;;11.02;;
11616;SDS011;5864;52.998;9.068;2022-12-15T08:32:53;18.08;;;10.90;;
11616;SDS011;5864;52.998;9.068;2022-12-15T08:35:21;14.85;;;9.52;;
11616;SDS011;5864;52.998;9.068;2022-12-15T08:37:48;14.18;;;9.23;;
11616;SDS011;5864;52.998;9.068;2022-12-15T08:40:17;12.45;;;8.60;;
11616;SDS011;5864;52.998;9.068;2022-12-15T08:42:44;13.25;;;8.45;;
11616;SDS011;5864;52.998;9.068;2022-12-15T08:45:12;10.73;;;8.48;;
11616;SDS011;5864;52.998;9.068;2022-12-15T08:47:39;14.75;;;8.73;;
11616;SDS011;5864;52.998;9.068;2022-12-15T08:50:07;11.50;;;8.10;;
11616;SDS011;5864;52.998;9.068;2022-12-15T08:52:35;11.83;;;8.33;;
11616;SDS011;5864;52.998;9.068;2022-12-15T08:55:07;11.03;;;8.10;;
11616;SDS011;5864;52.998;9.068;2022-12-15T08:57:38;12.37;;;8.73;;
11616;SDS011;5864;52.998;9.068;2022-12-15T09:00:06;15.07;;;8.40;;
11616;SDS011;5864;52.998;9.068;2022-12-15T09:02:34;11.90;;;8.30;;
11616;SDS011;5864;52.998;9.068;2022-12-15T09:05:01;11.37;;;8.47;;
11616;SDS011;5864;52.998;9.068;2022-12-15T09:07:30;13.47;;;8.43;;
11616;SDS011;5864;52.998;9.068;2022-12-15T09:09:58;12.60;;;7.30;;
11616;SDS011;5864;52.998;9.068;2022-12-15T09:12:26;12.07;;;9.00;;
11616;SDS011;5864;52.998;9.068;2022-12-15T09:14:55;11.93;;;8.23;;
11616;SDS011;5864;52.998;9.068;2022-12-15T09:17:23;11.80;;;8.20;;
11616;SDS011;5864;52.998;9.068;2022-12-15T09:19:50;12.63;;;8.80;;
11616;SDS011;5864;52.998;9.068;2022-12-15T09:22:18;13.50;;;8.20;;
11616;SDS011;5864;52.998;9.068;2022-12-15T09:24:46;10.17;;;7.70;;
11616;SDS011;5864;52.998;9.068;2022-12-15T09:27:14;12.23;;;8.00;;
11616;SDS011;5864;52.998;9.068;2022-12-15T09:29:42;12.23;;;7.67;;
11616;SDS011;5864;52.998;9.068;2022-12-15T09:32:10;12.30;;;7.87;;
11616;SDS011;5864;52.998;9.068;2022-12-15T09:34:38;12.27;;;7.77;;
11616;SDS011;5864;52.998;9.068;2022-12-15T09:37:06;15.37;;;8.60;;
11616;SDS011;5864;52.998;9.068;2022-12-15T09:39:33;13.00;;;7.93;;
11616;SDS011;5864;52.998;9.068;2022-12-15T09:42:02;14.60;;;9.13;;
11616;SDS011;5864;52.998;9.068;2022-12-15T09:44:30;12.57;;;8.55;;
11616;SDS011;5864;52.998;9.068;2022-12-15T09:49:53;15.23;;;8.82;;
11616;SDS011;5864;52.998;9.068;2022-12-15T09:52:22;14.25;;;8.45;;
11616;SDS011;5864;52.998;9.068;2022-12-15T09:54:53;13.93;;;8.55;;
11616;SDS011;5864;52.998;9.068;2022-12-15T09:57:26;12.00;;;8.80;;
11616;SDS011;5864;52.998;9.068;2022-12-15T10:00:08;13.67;;;8.77;;
11616;SDS011;5864;52.998;9.068;2022-12-15T10:02:51;11.75;;;7.63;;
11616;SDS011;5864;52.998;9.068;2022-12-15T10:05:54;17.47;;;8.90;;
11616;SDS011;5864;52.998;9.068;2022-12-15T10:08:37;15.18;;;8.35;;
11616;SDS011;5864;52.998;9.068;2022-12-15T10:11:16;16.13;;;9.20;;
11616;SDS011;5864;52.998;9.068;2022-12-15T10:13:50;13.35;;;8.77;;
11616;SDS011;5864;52.998;9.068;2022-12-15T10:16:22;15.27;;;8.68;;
11616;SDS011;5864;52.998;9.068;2022-12-15T10:19:01;14.23;;;8.98;;
11616;SDS011;5864;52.998;9.068;2022-12-15T10:21:33;12.65;;;8.23;;
11616;SDS011;5864;52.998;9.068;2022-12-15T10:24:06;12.60;;;8.27;;
11616;SDS011;5864;52.998;9.068;2022-12-15T10:26:42;11.77;;;8.05;;
11616;SDS011;5864;52.998;9.068;2022-12-15T10:29:17;14.15;;;8.73;;
11616;SDS011;5864;52.998;9.068;2022-12-15T10:31:58;12.73;;;8.40;;
11616;SDS011;5864;52.998;9.068;2022-12-15T10:34:31;12.70;;;8.07;;
11616;SDS011;5864;52.998;9.068;2022-12-15T10:37:02;15.65;;;9.07;;
11616;SDS011;5864;52.998;9.068;2022-12-15T10:39:37;15.10;;;9.88;;
11616;SDS011;5864;52.998;9.068;2022-12-15T10:42:09;15.20;;;8.93;;
11616;SDS011;5864;52.998;9.068;2022-12-15T10:44:42;13.50;;;8.50;;
11616;SDS011;5864;52.998;9.068;2022-12-15T10:47:15;17.50;;;9.30;;
11616;SDS011;5864;52.998;9.068;2022-12-15T10:49:46;16.98;;;8.82;;
11616;SDS011;5864;52.998;9.068;2022-12-15T10:52:15;12.80;;;8.77;;
11616;SDS011;5864;52.998;9.068;2022-12-15T10:54:50;14.18;;;8.63;;
11616;SDS011;5864;52.998;9.068;2022-12-15T10:57:20;15.25;;;10.00;;
11616;SDS011;5864;52.998;9.068;2022-12-15T10:59:52;17.40;;;9.93;;
11616;SDS011;5864;52.998;9.068;2022-12-15T11:02:27;16.00;;;10.10;;
11616;SDS011;5864;52.998;9.068;2022-12-15T11:05:03;17.77;;;9.70;;
11616;SDS011;5864;52.998;9.068;2022-12-15T11:07:33;15.68;;;10.00;;
11616;SDS011;5864;52.998;9.068;2022-12-15T11:10:14;13.95;;;9.25;;
11616;SDS011;5864;52.998;9.068;2022-12-15T11:12:43;17.55;;;9.65;;
11616;SDS011;5864;52.998;9.068;2022-12-15T11:15:33;16.52;;;10.20;;
11616;SDS011;5864;52.998;9.068;2022-12-15T11:18:08;15.30;;;9.48;;
11616;SDS011;5864;52.998;9.068;2022-12-15T11:20:46;16.13;;;10.05;;
11616;SDS011;5864;52.998;9.068;2022-12-15T11:23:18;16.10;;;10.00;;
11616;SDS011;5864;52.998;9.068;2022-12-15T11:25:53;15.60;;;10.13;;
11616;SDS011;5864;52.998;9.068;2022-12-15T11:28:25;16.42;;;9.73;;
11616;SDS011;5864;52.998;9.068;2022-12-15T11:30:59;14.35;;;9.80;;
11616;SDS011;5864;52.998;9.068;2022-12-15T11:33:32;13.95;;;9.52;;
11616;SDS011;5864;52.998;9.068;2022-12-15T11:36:07;13.95;;;9.40;;
11616;SDS011;5864;52.998;9.068;2022-12-15T11:38:42;16.70;;;9.38;;
11616;SDS011;5864;52.998;9.068;2022-12-15T11:41:19;14.02;;;9.63;;
11616;SDS011;5864;52.998;9.068;2022-12-15T11:44:02;15.52;;;9.90;;
11616;SDS011;5864;52.998;9.068;2022-12-15T11:46:50;14.07;;;10.00;;
11616;SDS011;5864;52.998;9.068;2022-12-15T11:55:17;14.70;;;9.60;;
11616;SDS011;5864;52.998;9.068;2022-12-15T11:57:55;18.75;;;10.98;;
11616;SDS011;5864;52.998;9.068;2022-12-15T12:00:33;16.80;;;10.63;;
11616;SDS011;5864;52.998;9.068;2022-12-15T12:03:10;17.30;;;10.00;;
11616;SDS011;5864;52.998;9.068;2022-12-15T12:05:50;19.95;;;11.18;;
11616;SDS011;5864;52.998;9.068;2022-12-15T12:08:34;18.23;;;10.60;;
11616;SDS011;5864;52.998;9.068;2022-12-15T12:11:14;14.82;;;10.02;;
11616;SDS011;5864;52.998;9.068;2022-12-15T12:13:47;14.35;;;9.88;;
11616;SDS011;5864;52.998;9.068;2022-12-15T12:16:28;16.40;;;10.55;;
11616;SDS011;5864;52.998;9.068;2022-12-15T12:19:04;17.48;;;10.57;;
11616;SDS011;5864;52.998;9.068;2022-12-15T12:21:37;13.75;;;9.77;;
11616;SDS011;5864;52.998;9.068;2022-12-15T12:24:12;16.63;;;11.32;;
11616;SDS011;5864;52.998;9.068;2022-12-15T12:26:44;18.55;;;10.07;;
11616;SDS011;5864;52.998;9.068;2022-12-15T12:29:14;17.13;;;10.32;;
11616;SDS011;5864;52.998;9.068;2022-12-15T12:31:49;18.75;;;10.88;;
11616;SDS011;5864;52.998;9.068;2022-12-15T12:34:24;16.98;;;10.43;;
11616;SDS011;5864;52.998;9.068;2022-12-15T12:36:56;17.95;;;10.95;;
11616;SDS011;5864;52.998;9.068;2022-12-15T12:39:35;18.20;;;10.82;;
11616;SDS011;5864;52.998;9.068;2022-12-15T12:42:04;18.27;;;11.05;;
11616;SDS011;5864;52.998;9.068;2022-12-15T12:44:41;17.00;;;11.00;;
11616;SDS011;5864;52.998;9.068;2022-12-15T12:47:10;20.88;;;11.32;;
11616;SDS011;5864;52.998;9.068;2022-12-15T12:49:42;16.45;;;11.30;;
11616;SDS011;5864;52.998;9.068;2022-12-15T12:52:17;17.13;;;11.45;;
11616;SDS011;5864;52.998;9.068;2022-12-15T12:54:53;17.65;;;11.57;;
11616;SDS011;5864;52.998;9.068;2022-12-15T12:57:31;19.35;;;11.38;;
11616;SDS011;5864;52.998;9.068;2022-12-15T13:00:15;18.60;;;12.50;;
11616;SDS011;5864;52.998;9.068;2022-12-15T13:02:54;21.92;;;12.23;;
11616;SDS011;5864;52.998;9.068;2022-12-15T13:05:38;17.70;;;11.60;;
11616;SDS011;5864;52.998;9.068;2022-12-15T13:08:17;24.02;;;12.90;;
11616;SDS011;5864;52.998;9.068;2022-12-15T13:14:41;20.33;;;13.02;;
11616;SDS011;5864;52.998;9.068;2022-12-15T13:17:12;20.70;;;13.45;;
11616;SDS011;5864;52.998;9.068;2022-12-15T13:22:47;18.52;;;13.35;;
11616;SDS011;5864;52.998;9.068;2022-12-15T13:28:28;23.33;;;14.10;;
11616;SDS011;5864;52.998;9.068;2022-12-15T13:33:56;20.67;;;13.07;;
11616;SDS011;5864;52.998;9.068;2022-12-15T13:36:44;23.77;;;12.65;;
11616;SDS011;5864;52.998;9.068;2022-12-15T13:42:24;21.52;;;12.85;;
11616;SDS011;5864;52.998;9.068;2022-12-15T13:48:07;22.42;;;12.90;;
11616;SDS011;5864;52.998;9.068;2022-12-15T13:50:47;19.25;;;12.80;;
11616;SDS011;5864;52.998;9.068;2022-12-15T13:53:22;17.58;;;11.85;;
11616;SDS011;5864;52.998;9.068;2022-12-15T13:55:53;19.65;;;12.57;;
11616;SDS011;5864;52.998;9.068;2022-12-15T13:58:24;20.40;;;12.07;;
11616;SDS011;5864;52.998;9.068;2022-12-15T14:00:57;19.58;;;11.90;;
11616;SDS011;5864;52.998;9.068;2022-12-15T14:03:27;17.50;;;11.52;;
11616;SDS011;5864;52.998;9.068;2022-12-15T14:05:55;18.48;;;11.48;;
11616;SDS011;5864;52.998;9.068;2022-12-15T14:08:25;19.98;;;11.20;;
11616;SDS011;5864;52.998;9.068;2022-12-15T14:10:55;16.77;;;10.85;;
11616;SDS011;5864;52.998;9.068;2022-12-15T14:13:25;18.63;;;12.02;;
11616;SDS011;5864;52.998;9.068;2022-12-15T14:15:57;17.95;;;10.90;;
11616;SDS011;5864;52.998;9.068;2022-12-15T14:18:29;16.40;;;11.10;;
11616;SDS011;5864;52.998;9.068;2022-12-15T14:20:58;20.27;;;11.50;;
11616;SDS011;5864;52.998;9.068;2022-12-15T14:23:27;17.83;;;10.98;;
11616;SDS011;5864;52.998;9.068;2022-12-15T14:26:00;17.42;;;10.82;;
11616;SDS011;5864;52.998;9.068;2022-12-15T14:28:31;15.98;;;11.18;;
11616;SDS011;5864;52.998;9.068;2022-12-15T14:31:01;18.52;;;10.95;;
11616;SDS011;5864;52.998;9.068;2022-12-15T14:33:34;16.05;;;10.43;;
11616;SDS011;5864;52.998;9.068;2022-12-15T14:36:04;18.63;;;11.10;;
11616;SDS011;5864;52.998;9.068;2022-12-15T14:38:37;17.77;;;11.00;;
11616;SDS011;5864;52.998;9.068;2022-12-15T14:41:12;19.13;;;11.05;;
11616;SDS011;5864;52.998;9.068;2022-12-15T14:43:46;18.20;;;11.02;;
11616;SDS011;5864;52.998;9.068;2022-12-15T14:46:15;18.23;;;11.40;;
11616;SDS011;5864;52.998;9.068;2022-12-15T14:48:49;18.48;;;10.98;;
11616;SDS011;5864;52.998;9.068;2022-12-15T14:51:20;18.15;;;11.25;;
11616;SDS011;5864;52.998;9.068;2022-12-15T14:53:51;18.55;;;12.18;;
11616;SDS011;5864;52.998;9.068;2022-12-15T14:56:21;17.35;;;11.77;;
11616;SDS011;5864;52.998;9.068;2022-12-15T14:58:58;20.80;;;11.52;;
11616;SDS011;5864;52.998;9.068;2022-12-15T15:01:33;20.35;;;11.15;;
11616;SDS011;5864;52.998;9.068;2022-12-15T15:04:06;18.00;;;10.75;;
11616;SDS011;5864;52.998;9.068;2022-12-15T15:06:52;17.23;;;11.43;;
11616;SDS011;5864;52.998;9.068;2022-12-15T15:09:22;23.60;;;12.15;;
11616;SDS011;5864;52.998;9.068;2022-12-15T15:11:52;22.13;;;12.90;;
11616;SDS011;5864;52.998;9.068;2022-12-15T15:14:22;20.20;;;12.40;;
11616;SDS011;5864;52.998;9.068;2022-12-15T15:16:57;18.52;;;12.50;;
11616;SDS011;5864;52.998;9.068;2022-12-15T15:19:30;19.52;;;12.38;;
11616;SDS011;5864;52.998;9.068;2022-12-15T15:21:59;21.13;;;12.75;;
11616;SDS011;5864;52.998;9.068;2022-12-15T15:24:33;19.60;;;12.55;;
11616;SDS011;5864;52.998;9.068;2022-12-15T15:29:52;19.35;;;12.43;;
11616;SDS011;5864;52.998;9.068;2022-12-15T15:32:47;22.65;;;12.13;;
11616;SDS011;5864;52.998;9.068;2022-12-15T15:35:18;22.52;;;12.25;;
11616;SDS011;5864;52.998;9.068;2022-12-15T15:37:45;22.83;;;13.52;;
11616;SDS011;5864;52.998;9.068;2022-12-15T15:40:13;20.40;;;12.35;;
11616;SDS011;5864;52.998;9.068;2022-12-15T15:42:42;21.55;;;13.38;;
11616;SDS011;5864;52.998;9.068;2022-12-15T15:45:11;19.45;;;12.52;;
11616;SDS011;5864;52.998;9.068;2022-12-15T15:47:44;21.80;;;13.20;;
11616;SDS011;5864;52.998;9.068;2022-12-15T15:50:16;20.10;;;12.50;;